sensor_id;sensor_type;location;lat;lon;timestamp;temperature;humidity
30520;DHT22;17300;50.374;8.006;2022-12-07T00:01:25;8.70;59.00
30520;DHT22;17300;50.374;8.006;2022-12-07T00:03:54;8.70;59.00
30520;DHT22;17300;50.374;8.006;2022-12-07T00:06:22;8.60;58.80
30520;DHT22;17300;50.374;8.006;2022-12-07T00:08:49;8.60;58.70
30520;DHT22;17300;50.374;8.006;2022-12-07T00:11:17;8.60;58.80
30520;DHT22;17300;50.374;8.006;2022-12-07T00:13:46;8.60;58.90
30520;DHT22;17300;50.374;8.006;2022-12-07T00:16:14;8.60;59.10
30520;DHT22;17300;50.374;8.006;2022-12-07T00:18:42;8.60;59.10
30520;DHT22;17300;50.374;8.006;2022-12-07T00:21:10;8.60;59.20
30520;DHT22;17300;50.374;8.006;2022-12-07T00:23:38;8.60;59.20
30520;DHT22;17300;50.374;8.006;2022-12-07T00:26:06;8.60;59.20
30520;DHT22;17300;50.374;8.006;2022-12-07T00:28:33;8.60;59.20
30520;DHT22;17300;50.374;8.006;2022-12-07T00:31:03;8.60;59.20
30520;DHT22;17300;50.374;8.006;2022-12-07T00:33:30;8.60;59.20
30520;DHT22;17300;50.374;8.006;2022-12-07T00:35:58;8.70;59.20
30520;DHT22;17300;50.374;8.006;2022-12-07T00:38:27;8.70;59.20
30520;DHT22;17300;50.374;8.006;2022-12-07T00:40:55;8.70;59.20
30520;DHT22;17300;50.374;8.006;2022-12-07T00:43:22;8.70;59.20
30520;DHT22;17300;50.374;8.006;2022-12-07T00:45:49;8.80;59.30
30520;DHT22;17300;50.374;8.006;2022-12-07T00:48:17;8.80;59.30
30520;DHT22;17300;50.374;8.006;2022-12-07T00:50:43;8.80;59.30
30520;DHT22;17300;50.374;8.006;2022-12-07T00:53:10;8.80;59.30
30520;DHT22;17300;50.374;8.006;2022-12-07T00:55:37;8.80;59.20
30520;DHT22;17300;50.374;8.006;2022-12-07T00:58:04;8.90;59.20
30520;DHT22;17300;50.374;8.006;2022-12-07T01:00:31;8.90;59.20
30520;DHT22;17300;50.374;8.006;2022-12-07T01:02:58;8.90;59.20
30520;DHT22;17300;50.374;8.006;2022-12-07T01:05:26;8.90;59.20
30520;DHT22;17300;50.374;8.006;2022-12-07T01:07:52;8.90;59.10
30520;DHT22;17300;50.374;8.006;2022-12-07T01:10:19;8.90;59.20
30520;DHT22;17300;50.374;8.006;2022-12-07T01:12:46;8.90;59.20
30520;DHT22;17300;50.374;8.006;2022-12-07T01:15:13;8.90;59.20
30520;DHT22;17300;50.374;8.006;2022-12-07T01:17:40;8.90;59.20
30520;DHT22;17300;50.374;8.006;2022-12-07T01:20:07;8.90;59.70
30520;DHT22;17300;50.374;8.006;2022-12-07T01:22:37;8.90;59.20
30520;DHT22;17300;50.374;8.006;2022-12-07T01:25:05;8.90;59.10
30520;DHT22;17300;50.374;8.006;2022-12-07T01:27:32;8.90;59.10
30520;DHT22;17300;50.374;8.006;2022-12-07T01:29:59;8.90;59.10
30520;DHT22;17300;50.374;8.006;2022-12-07T01:32:25;8.90;59.10
30520;DHT22;17300;50.374;8.006;2022-12-07T01:34:52;8.90;59.10
30520;DHT22;17300;50.374;8.006;2022-12-07T01:37:19;8.90;59.10
30520;DHT22;17300;50.374;8.006;2022-12-07T01:39:49;8.90;59.70
30520;DHT22;17300;50.374;8.006;2022-12-07T01:42:17;8.90;59.20
30520;DHT22;17300;50.374;8.006;2022-12-07T01:48:10;8.90;59.50
30520;DHT22;17300;50.374;8.006;2022-12-07T01:50:38;8.90;59.20
30520;DHT22;17300;50.374;8.006;2022-12-07T01:53:08;8.90;59.20
30520;DHT22;17300;50.374;8.006;2022-12-07T01:55:40;8.90;59.20
30520;DHT22;17300;50.374;8.006;2022-12-07T01:58:09;8.90;59.20
30520;DHT22;17300;50.374;8.006;2022-12-07T02:00:36;8.90;59.20
30520;DHT22;17300;50.374;8.006;2022-12-07T02:03:06;8.90;59.20
30520;DHT22;17300;50.374;8.006;2022-12-07T02:05:35;9.00;59.30
30520;DHT22;17300;50.374;8.006;2022-12-07T02:08:04;8.90;59.20
30520;DHT22;17300;50.374;8.006;2022-12-07T02:10:32;9.00;59.30
30520;DHT22;17300;50.374;8.006;2022-12-07T02:13:02;8.90;59.20
30520;DHT22;17300;50.374;8.006;2022-12-07T02:15:38;8.90;59.20
30520;DHT22;17300;50.374;8.006;2022-12-07T02:18:11;8.90;59.20
30520;DHT22;17300;50.374;8.006;2022-12-07T02:20:47;8.90;59.10
30520;DHT22;17300;50.374;8.006;2022-12-07T02:23:35;8.90;59.10
30520;DHT22;17300;50.374;8.006;2022-12-07T02:26:24;8.90;59.10
30520;DHT22;17300;50.374;8.006;2022-12-07T02:29:19;8.90;59.20
30520;DHT22;17300;50.374;8.006;2022-12-07T02:31:51;8.90;59.20
30520;DHT22;17300;50.374;8.006;2022-12-07T02:34:26;8.90;59.10
30520;DHT22;17300;50.374;8.006;2022-12-07T02:36:57;8.90;59.10
30520;DHT22;17300;50.374;8.006;2022-12-07T02:39:32;8.90;59.10
30520;DHT22;17300;50.374;8.006;2022-12-07T02:42:04;8.90;59.10
30520;DHT22;17300;50.374;8.006;2022-12-07T02:44:36;8.90;59.10
30520;DHT22;17300;50.374;8.006;2022-12-07T02:47:05;8.90;59.70
30520;DHT22;17300;50.374;8.006;2022-12-07T02:49:33;8.90;59.20
30520;DHT22;17300;50.374;8.006;2022-12-07T02:52:02;8.90;59.20
30520;DHT22;17300;50.374;8.006;2022-12-07T02:54:28;8.90;59.30
30520;DHT22;17300;50.374;8.006;2022-12-07T02:57:02;8.90;59.20
30520;DHT22;17300;50.374;8.006;2022-12-07T02:59:41;8.90;59.40
30520;DHT22;17300;50.374;8.006;2022-12-07T03:02:18;8.90;59.40
30520;DHT22;17300;50.374;8.006;2022-12-07T03:04:55;8.90;59.30
30520;DHT22;17300;50.374;8.006;2022-12-07T03:07:32;8.90;59.20
30520;DHT22;17300;50.374;8.006;2022-12-07T03:10:03;8.90;59.20
30520;DHT22;17300;50.374;8.006;2022-12-07T03:12:37;8.90;59.20
30520;DHT22;17300;50.374;8.006;2022-12-07T03:15:13;8.90;59.20
30520;DHT22;17300;50.374;8.006;2022-12-07T03:17:42;9.00;59.40
30520;DHT22;17300;50.374;8.006;2022-12-07T03:20:13;9.00;59.40
30520;DHT22;17300;50.374;8.006;2022-12-07T03:22:41;9.00;59.40
30520;DHT22;17300;50.374;8.006;2022-12-07T03:25:11;9.00;59.40
30520;DHT22;17300;50.374;8.006;2022-12-07T03:27:44;9.00;59.30
30520;DHT22;17300;50.374;8.006;2022-12-07T03:30:16;9.00;59.30
30520;DHT22;17300;50.374;8.006;2022-12-07T03:32:46;9.00;59.30
30520;DHT22;17300;50.374;8.006;2022-12-07T03:35:17;9.00;59.30
30520;DHT22;17300;50.374;8.006;2022-12-07T03:37:48;9.00;59.40
30520;DHT22;17300;50.374;8.006;2022-12-07T03:40:24;9.00;59.40
30520;DHT22;17300;50.374;8.006;2022-12-07T03:42:52;9.00;59.40
30520;DHT22;17300;50.374;8.006;2022-12-07T03:45:26;9.00;59.30
30520;DHT22;17300;50.374;8.006;2022-12-07T03:48:02;9.00;59.30
30520;DHT22;17300;50.374;8.006;2022-12-07T03:50:35;9.00;59.30
30520;DHT22;17300;50.374;8.006;2022-12-07T03:53:08;9.00;59.30
30520;DHT22;17300;50.374;8.006;2022-12-07T03:55:40;9.00;59.40
30520;DHT22;17300;50.374;8.006;2022-12-07T03:58:10;9.00;59.90
30520;DHT22;17300;50.374;8.006;2022-12-07T04:00:38;9.00;59.40
30520;DHT22;17300;50.374;8.006;2022-12-07T04:03:06;9.00;59.40
30520;DHT22;17300;50.374;8.006;2022-12-07T04:05:33;9.00;59.50
30520;DHT22;17300;50.374;8.006;2022-12-07T04:08:00;9.00;59.50
30520;DHT22;17300;50.374;8.006;2022-12-07T04:10:26;9.00;59.50
30520;DHT22;17300;50.374;8.006;2022-12-07T04:12:53;9.00;59.40
30520;DHT22;17300;50.374;8.006;2022-12-07T04:15:20;9.00;59.40
30520;DHT22;17300;50.374;8.006;2022-12-07T04:17:48;9.00;59.40
30520;DHT22;17300;50.374;8.006;2022-12-07T04:20:15;9.10;59.50
30520;DHT22;17300;50.374;8.006;2022-12-07T04:22:41;9.00;59.40
30520;DHT22;17300;50.374;8.006;2022-12-07T04:25:08;9.10;59.60
30520;DHT22;17300;50.374;8.006;2022-12-07T04:27:35;9.10;59.60
30520;DHT22;17300;50.374;8.006;2022-12-07T04:30:02;9.10;59.60
30520;DHT22;17300;50.374;8.006;2022-12-07T04:32:29;9.10;59.60
30520;DHT22;17300;50.374;8.006;2022-12-07T04:34:57;9.10;59.60
30520;DHT22;17300;50.374;8.006;2022-12-07T04:37:24;9.10;59.60
30520;DHT22;17300;50.374;8.006;2022-12-07T04:39:51;9.10;59.70
30520;DHT22;17300;50.374;8.006;2022-12-07T04:42:18;9.10;59.60
30520;DHT22;17300;50.374;8.006;2022-12-07T04:44:44;9.10;59.60
30520;DHT22;17300;50.374;8.006;2022-12-07T04:47:11;9.10;59.60
30520;DHT22;17300;50.374;8.006;2022-12-07T04:49:38;9.10;59.50
30520;DHT22;17300;50.374;8.006;2022-12-07T04:52:06;9.10;59.50
30520;DHT22;17300;50.374;8.006;2022-12-07T04:54:33;9.00;59.40
30520;DHT22;17300;50.374;8.006;2022-12-07T04:56:59;9.10;59.60
30520;DHT22;17300;50.374;8.006;2022-12-07T04:59:26;9.10;59.60
30520;DHT22;17300;50.374;8.006;2022-12-07T05:01:53;9.10;59.60
30520;DHT22;17300;50.374;8.006;2022-12-07T05:04:19;9.10;59.60
30520;DHT22;17300;50.374;8.006;2022-12-07T05:06:46;9.10;59.60
30520;DHT22;17300;50.374;8.006;2022-12-07T05:09:14;9.10;59.60
30520;DHT22;17300;50.374;8.006;2022-12-07T05:11:41;9.10;59.60
30520;DHT22;17300;50.374;8.006;2022-12-07T05:14:12;9.00;59.60
30520;DHT22;17300;50.374;8.006;2022-12-07T05:16:39;9.10;59.70
30520;DHT22;17300;50.374;8.006;2022-12-07T05:19:06;9.10;59.70
30520;DHT22;17300;50.374;8.006;2022-12-07T05:21:33;9.10;59.70
30520;DHT22;17300;50.374;8.006;2022-12-07T05:24:00;9.10;59.70
30520;DHT22;17300;50.374;8.006;2022-12-07T05:26:28;9.10;59.70
30520;DHT22;17300;50.374;8.006;2022-12-07T05:28:55;9.10;59.80
30520;DHT22;17300;50.374;8.006;2022-12-07T05:31:23;9.10;59.70
30520;DHT22;17300;50.374;8.006;2022-12-07T05:33:50;9.10;59.70
30520;DHT22;17300;50.374;8.006;2022-12-07T05:36:17;9.10;59.70
30520;DHT22;17300;50.374;8.006;2022-12-07T05:38:44;9.10;59.70
30520;DHT22;17300;50.374;8.006;2022-12-07T05:41:13;9.10;59.70
30520;DHT22;17300;50.374;8.006;2022-12-07T05:43:55;9.20;59.70
30520;DHT22;17300;50.374;8.006;2022-12-07T05:46:22;9.20;59.70
30520;DHT22;17300;50.374;8.006;2022-12-07T05:48:49;9.20;59.70
30520;DHT22;17300;50.374;8.006;2022-12-07T05:51:16;9.20;59.70
30520;DHT22;17300;50.374;8.006;2022-12-07T05:53:42;9.20;59.70
30520;DHT22;17300;50.374;8.006;2022-12-07T05:56:09;9.20;59.60
30520;DHT22;17300;50.374;8.006;2022-12-07T05:58:36;9.20;59.60
30520;DHT22;17300;50.374;8.006;2022-12-07T06:01:22;9.20;59.60
30520;DHT22;17300;50.374;8.006;2022-12-07T06:03:48;9.20;59.50
30520;DHT22;17300;50.374;8.006;2022-12-07T06:06:15;9.20;59.40
30520;DHT22;17300;50.374;8.006;2022-12-07T06:08:42;9.20;59.40
30520;DHT22;17300;50.374;8.006;2022-12-07T06:11:09;9.10;59.40
30520;DHT22;17300;50.374;8.006;2022-12-07T06:13:53;9.10;59.40
30520;DHT22;17300;50.374;8.006;2022-12-07T06:16:21;9.10;59.30
30520;DHT22;17300;50.374;8.006;2022-12-07T06:18:48;9.10;59.30
30520;DHT22;17300;50.374;8.006;2022-12-07T06:21:14;9.00;59.20
30520;DHT22;17300;50.374;8.006;2022-12-07T06:23:41;9.00;59.30
30520;DHT22;17300;50.374;8.006;2022-12-07T06:26:08;9.00;59.40
30520;DHT22;17300;50.374;8.006;2022-12-07T06:28:34;8.90;59.40
30520;DHT22;17300;50.374;8.006;2022-12-07T06:31:02;8.90;59.50
30520;DHT22;17300;50.374;8.006;2022-12-07T06:33:30;8.90;59.60
30520;DHT22;17300;50.374;8.006;2022-12-07T06:35:57;8.90;59.60
30520;DHT22;17300;50.374;8.006;2022-12-07T06:38:23;8.90;59.60
30520;DHT22;17300;50.374;8.006;2022-12-07T06:40:50;8.90;59.60
30520;DHT22;17300;50.374;8.006;2022-12-07T06:43:17;8.90;59.70
30520;DHT22;17300;50.374;8.006;2022-12-07T06:45:43;8.90;59.70
30520;DHT22;17300;50.374;8.006;2022-12-07T06:48:10;8.90;59.70
30520;DHT22;17300;50.374;8.006;2022-12-07T06:50:38;8.90;59.80
30520;DHT22;17300;50.374;8.006;2022-12-07T06:53:05;8.90;59.80
30520;DHT22;17300;50.374;8.006;2022-12-07T06:55:31;8.90;59.70
30520;DHT22;17300;50.374;8.006;2022-12-07T06:57:58;8.90;59.70
30520;DHT22;17300;50.374;8.006;2022-12-07T07:00:25;8.90;59.70
30520;DHT22;17300;50.374;8.006;2022-12-07T07:02:51;8.90;59.80
30520;DHT22;17300;50.374;8.006;2022-12-07T07:05:18;8.90;59.90
30520;DHT22;17300;50.374;8.006;2022-12-07T07:07:48;8.90;60.00
30520;DHT22;17300;50.374;8.006;2022-12-07T07:10:15;8.90;60.00
30520;DHT22;17300;50.374;8.006;2022-12-07T07:12:41;8.90;60.00
30520;DHT22;17300;50.374;8.006;2022-12-07T07:15:09;8.90;60.00
30520;DHT22;17300;50.374;8.006;2022-12-07T07:17:37;8.90;60.10
30520;DHT22;17300;50.374;8.006;2022-12-07T07:20:04;9.00;60.10
30520;DHT22;17300;50.374;8.006;2022-12-07T07:22:31;9.00;59.90
30520;DHT22;17300;50.374;8.006;2022-12-07T07:24:59;9.00;59.80
30520;DHT22;17300;50.374;8.006;2022-12-07T07:27:26;9.00;59.70
30520;DHT22;17300;50.374;8.006;2022-12-07T07:29:53;9.00;59.70
30520;DHT22;17300;50.374;8.006;2022-12-07T07:32:20;9.00;59.60
30520;DHT22;17300;50.374;8.006;2022-12-07T07:34:47;9.00;59.60
30520;DHT22;17300;50.374;8.006;2022-12-07T07:37:14;9.00;59.70
30520;DHT22;17300;50.374;8.006;2022-12-07T07:39:41;9.00;59.80
30520;DHT22;17300;50.374;8.006;2022-12-07T07:42:09;8.90;59.80
30520;DHT22;17300;50.374;8.006;2022-12-07T07:44:35;9.00;60.00
30520;DHT22;17300;50.374;8.006;2022-12-07T07:47:03;9.00;60.00
30520;DHT22;17300;50.374;8.006;2022-12-07T07:49:30;9.00;60.10
30520;DHT22;17300;50.374;8.006;2022-12-07T07:51:56;9.00;60.20
30520;DHT22;17300;50.374;8.006;2022-12-07T07:54:23;9.00;60.20
30520;DHT22;17300;50.374;8.006;2022-12-07T07:56:50;9.10;60.20
30520;DHT22;17300;50.374;8.006;2022-12-07T07:59:19;9.10;60.30
30520;DHT22;17300;50.374;8.006;2022-12-07T08:01:46;9.10;60.20
30520;DHT22;17300;50.374;8.006;2022-12-07T08:04:13;9.20;60.10
30520;DHT22;17300;50.374;8.006;2022-12-07T08:06:40;9.20;60.00
30520;DHT22;17300;50.374;8.006;2022-12-07T08:09:07;9.20;60.00
30520;DHT22;17300;50.374;8.006;2022-12-07T08:11:34;9.30;60.00
30520;DHT22;17300;50.374;8.006;2022-12-07T08:14:01;9.20;59.90
30520;DHT22;17300;50.374;8.006;2022-12-07T08:16:30;9.20;59.80
30520;DHT22;17300;50.374;8.006;2022-12-07T08:18:56;9.20;59.70
30520;DHT22;17300;50.374;8.006;2022-12-07T08:21:23;9.30;59.90
30520;DHT22;17300;50.374;8.006;2022-12-07T08:23:50;9.30;59.90
30520;DHT22;17300;50.374;8.006;2022-12-07T08:26:17;9.30;60.10
30520;DHT22;17300;50.374;8.006;2022-12-07T08:28:43;9.30;60.00
30520;DHT22;17300;50.374;8.006;2022-12-07T08:31:13;9.30;60.00
30520;DHT22;17300;50.374;8.006;2022-12-07T08:33:42;9.30;59.90
30520;DHT22;17300;50.374;8.006;2022-12-07T08:36:10;9.40;59.90
30520;DHT22;17300;50.374;8.006;2022-12-07T08:38:39;9.40;59.90
30520;DHT22;17300;50.374;8.006;2022-12-07T08:41:06;9.40;59.90
30520;DHT22;17300;50.374;8.006;2022-12-07T08:43:36;9.40;59.70
30520;DHT22;17300;50.374;8.006;2022-12-07T08:46:06;9.40;59.60
30520;DHT22;17300;50.374;8.006;2022-12-07T08:48:35;9.40;59.60
30520;DHT22;17300;50.374;8.006;2022-12-07T08:51:04;9.40;59.90
30520;DHT22;17300;50.374;8.006;2022-12-07T08:53:31;9.40;60.20
30520;DHT22;17300;50.374;8.006;2022-12-07T08:55:59;9.40;60.70
30520;DHT22;17300;50.374;8.006;2022-12-07T08:58:27;9.50;61.20
30520;DHT22;17300;50.374;8.006;2022-12-07T09:00:54;9.60;61.50
30520;DHT22;17300;50.374;8.006;2022-12-07T09:03:21;9.80;61.70
30520;DHT22;17300;50.374;8.006;2022-12-07T09:05:47;9.90;61.70
30520;DHT22;17300;50.374;8.006;2022-12-07T09:08:16;10.00;60.50
30520;DHT22;17300;50.374;8.006;2022-12-07T09:10:42;10.10;60.40
30520;DHT22;17300;50.374;8.006;2022-12-07T09:13:09;10.20;60.30
30520;DHT22;17300;50.374;8.006;2022-12-07T09:15:36;10.30;60.00
30520;DHT22;17300;50.374;8.006;2022-12-07T09:18:03;10.40;60.00
30520;DHT22;17300;50.374;8.006;2022-12-07T09:20:29;10.50;59.90
30520;DHT22;17300;50.374;8.006;2022-12-07T09:22:56;10.50;59.60
30520;DHT22;17300;50.374;8.006;2022-12-07T09:25:24;10.60;59.40
30520;DHT22;17300;50.374;8.006;2022-12-07T09:27:56;10.70;59.10
30520;DHT22;17300;50.374;8.006;2022-12-07T09:30:23;10.70;58.90
30520;DHT22;17300;50.374;8.006;2022-12-07T09:32:49;10.70;58.90
30520;DHT22;17300;50.374;8.006;2022-12-07T09:35:16;10.70;58.90
30520;DHT22;17300;50.374;8.006;2022-12-07T09:37:43;10.80;59.10
30520;DHT22;17300;50.374;8.006;2022-12-07T09:40:10;10.80;59.20
30520;DHT22;17300;50.374;8.006;2022-12-07T09:42:41;10.80;59.50
30520;DHT22;17300;50.374;8.006;2022-12-07T09:45:13;10.90;59.60
30520;DHT22;17300;50.374;8.006;2022-12-07T09:47:40;11.00;59.60
30520;DHT22;17300;50.374;8.006;2022-12-07T09:50:13;11.10;59.60
30520;DHT22;17300;50.374;8.006;2022-12-07T09:52:40;11.20;59.40
30520;DHT22;17300;50.374;8.006;2022-12-07T09:55:12;11.30;59.50
30520;DHT22;17300;50.374;8.006;2022-12-07T09:57:41;11.40;59.20
30520;DHT22;17300;50.374;8.006;2022-12-07T10:00:13;11.40;59.40
30520;DHT22;17300;50.374;8.006;2022-12-07T10:02:41;11.50;60.90
30520;DHT22;17300;50.374;8.006;2022-12-07T10:05:13;11.70;62.00
30520;DHT22;17300;50.374;8.006;2022-12-07T10:07:40;12.10;63.60
30520;DHT22;17300;50.374;8.006;2022-12-07T10:10:14;12.40;63.70
30520;DHT22;17300;50.374;8.006;2022-12-07T10:12:59;12.70;62.10
30520;DHT22;17300;50.374;8.006;2022-12-07T10:15:44;13.00;59.70
30520;DHT22;17300;50.374;8.006;2022-12-07T10:21:06;13.30;59.10
30520;DHT22;17300;50.374;8.006;2022-12-07T10:23:38;13.40;58.70
30520;DHT22;17300;50.374;8.006;2022-12-07T10:26:29;13.30;58.10
30520;DHT22;17300;50.374;8.006;2022-12-07T10:29:02;13.40;57.40
30520;DHT22;17300;50.374;8.006;2022-12-07T10:31:29;13.30;57.80
30520;DHT22;17300;50.374;8.006;2022-12-07T10:33:58;13.30;58.00
30520;DHT22;17300;50.374;8.006;2022-12-07T10:36:29;13.30;57.70
30520;DHT22;17300;50.374;8.006;2022-12-07T10:39:02;13.30;57.50
30520;DHT22;17300;50.374;8.006;2022-12-07T10:41:29;13.30;57.80
30520;DHT22;17300;50.374;8.006;2022-12-07T10:43:57;13.30;58.80
30520;DHT22;17300;50.374;8.006;2022-12-07T10:46:50;13.40;59.50
30520;DHT22;17300;50.374;8.006;2022-12-07T10:49:42;13.50;59.40
30520;DHT22;17300;50.374;8.006;2022-12-07T10:52:21;13.70;58.40
30520;DHT22;17300;50.374;8.006;2022-12-07T10:55:03;13.90;58.40
30520;DHT22;17300;50.374;8.006;2022-12-07T10:57:43;14.00;58.20
30520;DHT22;17300;50.374;8.006;2022-12-07T11:00:17;14.20;58.00
30520;DHT22;17300;50.374;8.006;2022-12-07T11:03:16;14.20;58.00
30520;DHT22;17300;50.374;8.006;2022-12-07T11:05:52;14.40;57.30
30520;DHT22;17300;50.374;8.006;2022-12-07T11:08:34;14.40;57.50
30520;DHT22;17300;50.374;8.006;2022-12-07T11:11:08;14.40;57.20
30520;DHT22;17300;50.374;8.006;2022-12-07T11:13:41;14.50;57.30
30520;DHT22;17300;50.374;8.006;2022-12-07T11:16:24;14.50;56.90
30520;DHT22;17300;50.374;8.006;2022-12-07T11:19:16;14.50;56.60
30520;DHT22;17300;50.374;8.006;2022-12-07T11:21:50;14.50;56.30
30520;DHT22;17300;50.374;8.006;2022-12-07T11:24:22;14.50;56.30
30520;DHT22;17300;50.374;8.006;2022-12-07T11:27:04;14.40;55.60
30520;DHT22;17300;50.374;8.006;2022-12-07T11:29:50;14.30;54.80
30520;DHT22;17300;50.374;8.006;2022-12-07T11:32:30;14.10;54.90
30520;DHT22;17300;50.374;8.006;2022-12-07T11:35:07;13.90;54.10
30520;DHT22;17300;50.374;8.006;2022-12-07T11:37:36;13.60;54.00
30520;DHT22;17300;50.374;8.006;2022-12-07T11:40:15;13.30;53.90
30520;DHT22;17300;50.374;8.006;2022-12-07T11:42:45;13.10;53.70
30520;DHT22;17300;50.374;8.006;2022-12-07T11:45:14;12.80;53.70
30520;DHT22;17300;50.374;8.006;2022-12-07T11:47:46;12.60;53.90
30520;DHT22;17300;50.374;8.006;2022-12-07T11:50:26;12.40;54.30
30520;DHT22;17300;50.374;8.006;2022-12-07T11:52:56;12.20;54.40
30520;DHT22;17300;50.374;8.006;2022-12-07T11:55:31;12.00;54.80
30520;DHT22;17300;50.374;8.006;2022-12-07T11:58:04;11.90;55.10
30520;DHT22;17300;50.374;8.006;2022-12-07T12:00:31;11.80;55.40
30520;DHT22;17300;50.374;8.006;2022-12-07T12:03:01;11.70;55.80
30520;DHT22;17300;50.374;8.006;2022-12-07T12:05:31;11.60;56.10
30520;DHT22;17300;50.374;8.006;2022-12-07T12:08:11;11.70;56.60
30520;DHT22;17300;50.374;8.006;2022-12-07T12:10:51;11.70;56.80
30520;DHT22;17300;50.374;8.006;2022-12-07T12:16:47;11.80;57.60
30520;DHT22;17300;50.374;8.006;2022-12-07T12:19:27;11.90;58.00
30520;DHT22;17300;50.374;8.006;2022-12-07T12:22:04;12.10;58.70
30520;DHT22;17300;50.374;8.006;2022-12-07T12:24:33;12.30;59.00
30520;DHT22;17300;50.374;8.006;2022-12-07T12:27:03;12.50;58.90
30520;DHT22;17300;50.374;8.006;2022-12-07T12:29:33;12.80;58.60
30520;DHT22;17300;50.374;8.006;2022-12-07T12:32:13;13.00;58.10
30520;DHT22;17300;50.374;8.006;2022-12-07T12:34:57;13.10;57.20
30520;DHT22;17300;50.374;8.006;2022-12-07T12:37:41;13.20;56.90
30520;DHT22;17300;50.374;8.006;2022-12-07T12:43:39;13.20;55.20
30520;DHT22;17300;50.374;8.006;2022-12-07T12:46:36;13.10;54.90
30520;DHT22;17300;50.374;8.006;2022-12-07T12:49:30;13.00;54.80
30520;DHT22;17300;50.374;8.006;2022-12-07T12:52:00;12.80;54.70
30520;DHT22;17300;50.374;8.006;2022-12-07T12:54:31;12.70;54.90
30520;DHT22;17300;50.374;8.006;2022-12-07T12:57:01;12.50;54.80
30520;DHT22;17300;50.374;8.006;2022-12-07T12:59:33;12.30;54.60
30520;DHT22;17300;50.374;8.006;2022-12-07T13:02:16;12.20;54.70
30520;DHT22;17300;50.374;8.006;2022-12-07T13:04:52;12.10;54.80
30520;DHT22;17300;50.374;8.006;2022-12-07T13:07:56;12.00;55.00
30520;DHT22;17300;50.374;8.006;2022-12-07T13:10:40;11.80;55.00
30520;DHT22;17300;50.374;8.006;2022-12-07T13:13:30;11.70;55.00
30520;DHT22;17300;50.374;8.006;2022-12-07T13:18:57;11.60;55.80
30520;DHT22;17300;50.374;8.006;2022-12-07T13:21:41;11.50;56.00
30520;DHT22;17300;50.374;8.006;2022-12-07T13:24:10;11.50;55.90
30520;DHT22;17300;50.374;8.006;2022-12-07T13:26:42;11.50;55.90
30520;DHT22;17300;50.374;8.006;2022-12-07T13:29:12;11.40;55.70
30520;DHT22;17300;50.374;8.006;2022-12-07T13:31:40;11.40;55.50
30520;DHT22;17300;50.374;8.006;2022-12-07T13:34:30;11.40;55.40
30520;DHT22;17300;50.374;8.006;2022-12-07T13:36:57;11.30;55.30
30520;DHT22;17300;50.374;8.006;2022-12-07T13:39:25;11.20;55.20
30520;DHT22;17300;50.374;8.006;2022-12-07T13:41:55;11.10;55.20
30520;DHT22;17300;50.374;8.006;2022-12-07T13:44:23;11.00;55.20
30520;DHT22;17300;50.374;8.006;2022-12-07T13:46:59;10.90;55.30
30520;DHT22;17300;50.374;8.006;2022-12-07T13:49:28;10.80;55.50
30520;DHT22;17300;50.374;8.006;2022-12-07T13:52:13;10.80;55.70
30520;DHT22;17300;50.374;8.006;2022-12-07T13:54:44;10.70;55.70
30520;DHT22;17300;50.374;8.006;2022-12-07T13:57:13;10.70;55.70
30520;DHT22;17300;50.374;8.006;2022-12-07T13:59:40;10.60;55.70
30520;DHT22;17300;50.374;8.006;2022-12-07T14:02:18;10.60;55.90
30520;DHT22;17300;50.374;8.006;2022-12-07T14:04:47;10.50;56.20
30520;DHT22;17300;50.374;8.006;2022-12-07T14:07:23;10.50;56.30
30520;DHT22;17300;50.374;8.006;2022-12-07T14:09:55;10.40;56.50
30520;DHT22;17300;50.374;8.006;2022-12-07T14:12:24;10.40;56.50
30520;DHT22;17300;50.374;8.006;2022-12-07T14:14:51;10.40;57.20
30520;DHT22;17300;50.374;8.006;2022-12-07T14:17:20;10.40;57.00
30520;DHT22;17300;50.374;8.006;2022-12-07T14:19:50;10.40;56.70
30520;DHT22;17300;50.374;8.006;2022-12-07T14:22:23;10.40;56.80
30520;DHT22;17300;50.374;8.006;2022-12-07T14:24:57;10.40;56.90
30520;DHT22;17300;50.374;8.006;2022-12-07T14:27:31;10.40;56.90
30520;DHT22;17300;50.374;8.006;2022-12-07T14:29:59;10.40;57.00
30520;DHT22;17300;50.374;8.006;2022-12-07T14:32:27;10.50;56.90
30520;DHT22;17300;50.374;8.006;2022-12-07T14:35:02;10.50;56.80
30520;DHT22;17300;50.374;8.006;2022-12-07T14:37:29;10.50;56.70
30520;DHT22;17300;50.374;8.006;2022-12-07T14:39:56;10.40;56.60
30520;DHT22;17300;50.374;8.006;2022-12-07T14:42:28;10.40;56.50
30520;DHT22;17300;50.374;8.006;2022-12-07T14:44:56;10.40;56.50
30520;DHT22;17300;50.374;8.006;2022-12-07T14:47:24;10.40;56.50
30520;DHT22;17300;50.374;8.006;2022-12-07T14:49:51;10.40;56.40
30520;DHT22;17300;50.374;8.006;2022-12-07T14:52:19;10.40;56.30
30520;DHT22;17300;50.374;8.006;2022-12-07T14:54:47;10.30;56.20
30520;DHT22;17300;50.374;8.006;2022-12-07T14:57:13;10.20;56.20
30520;DHT22;17300;50.374;8.006;2022-12-07T14:59:41;10.20;56.20
30520;DHT22;17300;50.374;8.006;2022-12-07T15:02:10;10.20;56.10
30520;DHT22;17300;50.374;8.006;2022-12-07T15:04:37;10.10;56.00
30520;DHT22;17300;50.374;8.006;2022-12-07T15:07:05;10.10;56.00
30520;DHT22;17300;50.374;8.006;2022-12-07T15:09:32;10.00;55.90
30520;DHT22;17300;50.374;8.006;2022-12-07T15:11:59;10.00;55.90
30520;DHT22;17300;50.374;8.006;2022-12-07T15:14:26;9.90;56.80
30520;DHT22;17300;50.374;8.006;2022-12-07T15:16:54;9.90;56.80
30520;DHT22;17300;50.374;8.006;2022-12-07T15:19:22;9.80;56.70
30520;DHT22;17300;50.374;8.006;2022-12-07T15:21:51;9.80;56.80
30520;DHT22;17300;50.374;8.006;2022-12-07T15:24:19;9.70;56.80
30520;DHT22;17300;50.374;8.006;2022-12-07T15:26:46;9.70;56.90
30520;DHT22;17300;50.374;8.006;2022-12-07T15:29:12;9.60;56.80
30520;DHT22;17300;50.374;8.006;2022-12-07T15:31:40;9.60;56.90
30520;DHT22;17300;50.374;8.006;2022-12-07T15:34:08;9.60;56.90
30520;DHT22;17300;50.374;8.006;2022-12-07T15:36:35;9.50;56.90
30520;DHT22;17300;50.374;8.006;2022-12-07T15:39:03;9.50;57.00
30520;DHT22;17300;50.374;8.006;2022-12-07T15:41:29;9.50;57.10
30520;DHT22;17300;50.374;8.006;2022-12-07T15:43:56;9.40;57.00
30520;DHT22;17300;50.374;8.006;2022-12-07T15:46:41;9.40;57.10
30520;DHT22;17300;50.374;8.006;2022-12-07T15:49:12;9.40;57.10
30520;DHT22;17300;50.374;8.006;2022-12-07T15:51:40;9.40;57.20
30520;DHT22;17300;50.374;8.006;2022-12-07T15:54:06;9.30;57.20
30520;DHT22;17300;50.374;8.006;2022-12-07T15:56:33;9.30;57.20
30520;DHT22;17300;50.374;8.006;2022-12-07T15:59:00;9.30;57.20
30520;DHT22;17300;50.374;8.006;2022-12-07T16:01:26;9.30;57.30
30520;DHT22;17300;50.374;8.006;2022-12-07T16:03:53;9.30;57.30
30520;DHT22;17300;50.374;8.006;2022-12-07T16:06:21;9.20;57.20
30520;DHT22;17300;50.374;8.006;2022-12-07T16:08:48;9.20;57.20
30520;DHT22;17300;50.374;8.006;2022-12-07T16:11:15;9.10;57.10
30520;DHT22;17300;50.374;8.006;2022-12-07T16:13:41;9.10;57.10
30520;DHT22;17300;50.374;8.006;2022-12-07T16:16:13;9.00;57.70